Time;durP1;ratioP1;P1;durP2;ratioP2;P2;SDS_P1;SDS_P2;PMS_P1;PMS_P2;Temp;Humidity;BMP_temperature;BMP_pressure;BME280_temperature;BME280_humidity;BME280_pressure;Samples;Min_cycle;Max_cycle;Signal;HPM_P1;HPM_P2
2021/08/21 00:02:06;;;;;;;6.57;5.88;;;17.60;82.80;;;;;;5057931;28;20028;-84
2021/08/21 00:04:31;;;;;;;7.03;5.63;;;17.60;82.80;;;;;;5058540;28;20020;-85
2021/08/21 00:06:57;;;;;;;6.43;5.72;;;17.50;82.80;;;;;;5057809;28;20024;-84
2021/08/21 00:09:23;;;;;;;6.45;5.85;;;17.50;82.80;;;;;;5058329;28;20025;-85
2021/08/21 00:11:49;;;;;;;6.38;5.75;;;17.50;82.80;;;;;;5058118;28;20013;-84
2021/08/21 00:14:14;;;;;;;6.05;5.47;;;17.50;82.90;;;;;;5057871;28;20032;-84
2021/08/21 00:16:40;;;;;;;6.97;5.78;;;17.50;82.90;;;;;;5057506;28;20032;-84
2021/08/21 00:19:06;;;;;;;6.50;5.90;;;17.40;82.90;;;;;;5057483;28;20032;-84
2021/08/21 00:21:31;;;;;;;7.13;5.93;;;17.40;82.90;;;;;;5057645;28;20020;-84
2021/08/21 00:23:57;;;;;;;6.05;5.45;;;17.40;82.90;;;;;;5051169;28;20497;-84
2021/08/21 00:26:23;;;;;;;6.50;5.80;;;17.40;82.90;;;;;;5035001;28;20022;-85
2021/08/21 00:28:48;;;;;;;6.85;5.75;;;17.40;82.90;;;;;;5035430;28;20104;-85
2021/08/21 00:31:14;;;;;;;6.60;5.93;;;17.30;82.90;;;;;;5035147;28;20473;-84
2021/08/21 00:33:40;;;;;;;6.97;6.28;;;17.30;82.90;;;;;;5067801;28;20025;-85
2021/08/21 00:36:05;;;;;;;7.90;6.68;;;17.30;82.90;;;;;;5067972;28;20029;-85
2021/08/21 00:38:31;;;;;;;7.32;6.15;;;17.30;83.00;;;;;;5067823;28;20129;-85
2021/08/21 00:40:57;;;;;;;7.07;6.30;;;17.20;83.00;;;;;;5067280;28;20025;-85
2021/08/21 00:43:22;;;;;;;7.03;6.35;;;17.30;83.10;;;;;;5036167;28;20025;-84
2021/08/21 00:45:48;;;;;;;7.70;6.80;;;17.20;83.00;;;;;;5067312;28;20026;-84
2021/08/21 00:48:15;;;;;;;7.78;6.70;;;17.20;83.00;;;;;;5067762;28;20010;-85
2021/08/21 00:50:42;;;;;;;8.43;7.38;;;17.20;83.00;;;;;;5066853;28;20378;-84
2021/08/21 00:53:08;;;;;;;8.43;7.43;;;17.20;83.10;;;;;;5067234;28;20013;-84
2021/08/21 00:55:33;;;;;;;8.10;7.30;;;17.10;83.00;;;;;;5034975;28;20036;-84
2021/08/21 00:57:59;;;;;;;8.25;7.45;;;17.10;83.10;;;;;;5066887;28;20079;-84
2021/08/21 01:00:25;;;;;;;8.80;7.90;;;17.10;83.20;;;;;;5066994;28;20108;-84
2021/08/21 01:02:50;;;;;;;8.63;7.70;;;17.00;83.20;;;;;;5067036;28;20021;-84
2021/08/21 01:05:16;;;;;;;8.77;7.82;;;17.00;83.30;;;;;;5034431;28;20485;-83
2021/08/21 01:07:44;;;;;;;9.70;8.70;;;17.00;83.40;;;;;;5067117;28;20474;-85
2021/08/21 01:10:16;;;;;;;8.82;7.93;;;17.00;84.10;;;;;;5064180;28;20028;-84
2021/08/21 01:12:45;;;;;;;8.90;8.00;;;16.90;83.50;;;;;;5067218;28;20028;-85
2021/08/21 01:15:11;;;;;;;9.43;8.32;;;17.00;83.60;;;;;;5066409;28;20026;-83
2021/08/21 01:17:37;;;;;;;9.75;8.75;;;16.90;83.50;;;;;;5066805;28;20036;-84
2021/08/21 01:20:05;;;;;;;9.70;8.23;;;16.90;83.50;;;;;;5034005;28;20047;-84
2021/08/21 01:22:30;;;;;;;9.60;8.60;;;16.90;83.60;;;;;;5034540;28;20086;-84
2021/08/21 01:24:57;;;;;;;9.85;8.25;;;16.90;83.70;;;;;;5066096;28;20132;-84
2021/08/21 01:27:24;;;;;;;11.10;9.00;;;16.90;83.70;;;;;;5034531;28;20524;-83
2021/08/21 01:29:51;;;;;;;11.40;8.38;;;16.90;83.70;;;;;;5066178;28;20094;-84
2021/08/21 01:32:18;;;;;;;9.77;8.60;;;16.90;83.70;;;;;;5034099;28;20025;-83
2021/08/21 01:34:43;;;;;;;9.50;8.50;;;16.90;83.70;;;;;;5066366;28;20053;-84
2021/08/21 01:37:10;;;;;;;9.65;8.68;;;16.80;84.30;;;;;;5034089;28;20029;-83
2021/08/21 01:39:35;;;;;;;10.00;8.48;;;16.80;83.70;;;;;;5066111;28;20389;-84
2021/08/21 01:42:02;;;;;;;11.88;9.18;;;16.80;83.80;;;;;;5066001;28;20076;-85
2021/08/21 01:44:28;;;;;;;9.32;8.13;;;16.70;83.80;;;;;;5065643;28;20033;-84
2021/08/21 01:46:54;;;;;;;10.05;8.43;;;16.70;83.70;;;;;;5066375;28;20113;-84
2021/08/21 01:49:22;;;;;;;9.52;8.52;;;16.70;83.80;;;;;;5065828;28;20504;-84
2021/08/21 01:51:49;;;;;;;9.90;8.85;;;16.70;83.80;;;;;;5065728;28;20053;-83
2021/08/21 01:54:16;;;;;;;12.02;9.27;;;16.70;83.80;;;;;;5033491;28;20044;-84
2021/08/21 01:56:50;;;;;;;9.50;8.27;;;16.60;83.80;;;;;;5066252;28;20060;-84
2021/08/21 01:59:28;;;;;;;9.98;8.88;;;16.70;83.90;;;;;;5034125;28;20029;-84
2021/08/21 02:01:54;;;;;;;11.00;9.07;;;16.60;83.90;;;;;;5033804;28;20029;-84
2021/08/21 02:04:21;;;;;;;11.77;9.63;;;16.60;83.90;;;;;;5033801;28;20029;-84
2021/08/21 02:06:47;;;;;;;11.80;9.43;;;16.60;84.00;;;;;;5066322;28;20110;-84
2021/08/21 02:09:16;;;;;;;9.75;8.48;;;16.60;84.00;;;;;;5065354;28;20388;-84
2021/08/21 02:11:42;;;;;;;9.93;8.60;;;16.60;84.00;;;;;;5033983;28;20014;-84
2021/08/21 02:14:08;;;;;;;11.63;9.45;;;16.60;84.00;;;;;;5065344;28;20076;-84
2021/08/21 02:16:34;;;;;;;10.40;9.25;;;16.60;83.90;;;;;;5065457;28;20021;-84
2021/08/21 02:18:59;;;;;;;9.85;8.63;;;16.60;83.90;;;;;;5066403;28;20028;-84
2021/08/21 02:21:26;;;;;;;10.15;9.05;;;16.50;83.90;;;;;;5033924;28;20030;-84
2021/08/21 02:23:52;;;;;;;12.60;9.07;;;16.50;83.90;;;;;;5065527;28;20091;-84
2021/08/21 02:26:18;;;;;;;10.35;9.25;;;16.50;84.60;;;;;;5065879;28;20013;-83
2021/08/21 02:28:44;;;;;;;10.27;8.70;;;16.50;84.00;;;;;;5065491;28;20021;-84
2021/08/21 02:31:10;;;;;;;11.55;9.68;;;16.50;84.00;;;;;;5066572;28;20021;-84
2021/08/21 02:33:36;;;;;;;11.38;9.82;;;16.50;84.00;;;;;;5037224;28;20028;-84
2021/08/21 02:36:01;;;;;;;12.50;9.38;;;16.50;84.00;;;;;;5070250;28;20024;-83
2021/08/21 02:38:27;;;;;;;11.98;9.88;;;16.50;84.10;;;;;;5038069;28;20404;-85
2021/08/21 02:40:54;;;;;;;11.43;9.77;;;16.40;84.10;;;;;;5070440;28;20116;-85
2021/08/21 02:43:20;;;;;;;11.15;9.43;;;16.40;84.20;;;;;;5069971;28;20025;-84
2021/08/21 02:45:47;;;;;;;12.88;10.48;;;16.40;84.20;;;;;;5069481;28;20104;-84
2021/08/21 02:48:13;;;;;;;13.13;10.52;;;16.40;84.20;;;;;;5036625;28;20021;-84
2021/08/21 02:50:38;;;;;;;11.05;9.77;;;16.30;84.20;;;;;;5036596;28;20067;-84
2021/08/21 02:53:04;;;;;;;11.82;10.30;;;16.30;84.30;;;;;;5069687;28;20466;-84
2021/08/21 02:55:29;;;;;;;11.52;10.00;;;16.30;84.30;;;;;;5037081;28;20069;-84
2021/08/21 02:57:56;;;;;;;12.20;10.35;;;16.30;84.50;;;;;;5037315;28;20029;-84
2021/08/21 03:00:21;;;;;;;12.65;10.23;;;16.30;84.50;;;;;;5033430;28;20088;-84
2021/08/21 03:02:47;;;;;;;13.48;10.10;;;16.30;84.50;;;;;;5036552;28;20017;-84
2021/08/21 03:05:13;;;;;;;12.90;9.57;;;16.20;84.50;;;;;;5036544;28;20572;-84
2021/08/21 03:07:38;;;;;;;14.43;10.63;;;16.20;84.40;;;;;;5068678;28;20033;-83
2021/08/21 03:10:06;;;;;;;12.70;9.95;;;16.30;84.50;;;;;;5035892;28;20492;-84
2021/08/21 03:12:32;;;;;;;12.82;10.13;;;16.30;84.50;;;;;;5068441;28;20092;-84
2021/08/21 03:14:58;;;;;;;11.57;10.00;;;16.30;84.40;;;;;;5037230;28;20057;-84
2021/08/21 03:17:24;;;;;;;12.45;10.07;;;16.30;84.40;;;;;;5036309;28;20025;-84
2021/08/21 03:19:49;;;;;;;13.40;10.70;;;16.40;84.40;;;;;;5036925;28;20032;-83
2021/08/21 03:22:15;;;;;;;12.45;10.48;;;16.40;84.40;;;;;;5035592;28;20061;-83
2021/08/21 03:24:41;;;;;;;13.55;10.48;;;16.40;84.30;;;;;;5034702;28;20068;-83
2021/08/21 03:27:07;;;;;;;12.20;9.90;;;16.40;84.30;;;;;;5035348;28;20108;-83
2021/08/21 03:29:33;;;;;;;13.38;10.70;;;16.40;84.20;;;;;;5068126;28;20021;-83
2021/08/21 03:31:59;;;;;;;12.93;10.77;;;16.50;84.10;;;;;;5035301;28;20036;-83
2021/08/21 03:34:25;;;;;;;13.55;10.30;;;16.60;84.10;;;;;;5034775;28;20116;-83
2021/08/21 03:36:52;;;;;;;12.00;9.55;;;16.60;84.00;;;;;;5034872;28;20403;-84
2021/08/21 03:39:22;;;;;;;12.85;9.75;;;16.60;84.00;;;;;;5068025;28;20025;-84
2021/08/21 03:41:48;;;;;;;12.43;10.43;;;16.60;84.00;;;;;;5067684;28;20171;-84
2021/08/21 03:44:14;;;;;;;13.82;9.70;;;16.60;84.00;;;;;;5034730;28;20342;-84
2021/08/21 03:46:39;;;;;;;11.35;9.88;;;16.60;84.00;;;;;;5068558;28;20049;-83
2021/08/21 03:49:05;;;;;;;12.02;10.00;;;16.60;84.10;;;;;;5068310;28;20029;-83
2021/08/21 03:51:31;;;;;;;11.63;9.43;;;16.60;84.10;;;;;;5034799;28;20018;-83
2021/08/21 03:53:57;;;;;;;12.27;9.77;;;16.70;84.20;;;;;;5035791;28;20014;-83
2021/08/21 03:56:22;;;;;;;14.23;10.63;;;16.70;84.20;;;;;;5068081;28;20021;-83
2021/08/21 03:58:48;;;;;;;11.45;9.90;;;16.70;84.20;;;;;;5034620;28;20025;-83
2021/08/21 04:01:14;;;;;;;12.13;9.95;;;16.70;84.20;;;;;;5067808;28;20124;-83
2021/08/21 04:03:39;;;;;;;13.63;9.75;;;16.80;84.30;;;;;;5035396;28;20503;-82
2021/08/21 04:06:07;;;;;;;12.35;10.02;;;16.80;84.30;;;;;;5034972;28;20025;-83
2021/08/21 04:08:33;;;;;;;12.13;9.43;;;16.80;84.30;;;;;;5034567;28;20028;-84
2021/08/21 04:10:59;;;;;;;11.73;9.90;;;16.80;84.30;;;;;;5068510;28;20026;-85
2021/08/21 04:13:27;;;;;;;13.05;11.02;;;16.90;84.40;;;;;;5034680;28;20268;-84
2021/08/21 04:15:53;;;;;;;11.30;9.93;;;16.90;84.30;;;;;;5034595;28;20028;-84
2021/08/21 04:18:19;;;;;;;12.23;10.07;;;16.90;84.30;;;;;;5067614;28;20370;-83
2021/08/21 04:20:47;;;;;;;11.55;9.95;;;16.90;84.30;;;;;;5033938;28;20041;-84
2021/08/21 04:23:13;;;;;;;12.05;9.48;;;17.00;84.40;;;;;;5039148;28;20025;-83
2021/08/21 04:25:38;;;;;;;13.13;10.40;;;17.00;84.40;;;;;;5057411;28;20399;-83
2021/08/21 04:28:05;;;;;;;13.70;10.73;;;17.00;84.70;;;;;;5057034;28;20024;-83
2021/08/21 04:30:30;;;;;;;12.02;10.20;;;17.10;84.40;;;;;;5057025;28;20029;-82
2021/08/21 04:32:56;;;;;;;11.13;9.95;;;17.00;84.40;;;;;;5056858;28;20353;-82
2021/08/21 04:35:21;;;;;;;12.30;9.85;;;17.10;84.40;;;;;;5075109;28;20031;-82
2021/08/21 04:37:47;;;;;;;11.85;10.07;;;17.10;84.40;;;;;;5057237;28;20027;-82
2021/08/21 04:40:13;;;;;;;12.18;10.07;;;17.10;84.40;;;;;;5057173;28;20476;-83
2021/08/21 04:42:39;;;;;;;13.25;10.55;;;17.10;84.50;;;;;;5056681;28;20025;-82
2021/08/21 04:45:06;;;;;;;11.85;9.88;;;17.10;84.50;;;;;;5056951;28;20044;-82
2021/08/21 04:47:32;;;;;;;12.48;10.43;;;17.10;84.60;;;;;;5056596;28;20028;-83
2021/08/21 04:49:57;;;;;;;11.63;9.55;;;17.10;84.60;;;;;;5056844;28;20516;-82
2021/08/21 04:52:23;;;;;;;11.93;10.27;;;17.10;84.60;;;;;;5074850;28;20039;-83
2021/08/21 04:54:50;;;;;;;13.23;9.77;;;17.10;84.70;;;;;;5055817;28;20021;-82
2021/08/21 04:57:16;;;;;;;11.27;9.45;;;17.10;84.80;;;;;;5056731;28;20021;-82
2021/08/21 04:59:42;;;;;;;12.50;10.10;;;17.10;84.80;;;;;;5056638;28;20429;-82
2021/08/21 05:02:08;;;;;;;12.35;9.48;;;17.10;84.80;;;;;;5056422;28;20032;-82
2021/08/21 05:04:34;;;;;;;10.80;9.45;;;17.10;84.90;;;;;;5056772;28;20028;-82
2021/08/21 05:06:59;;;;;;;11.27;9.75;;;17.10;84.90;;;;;;5056140;28;20032;-83
2021/08/21 05:09:25;;;;;;;11.57;9.93;;;17.10;85.00;;;;;;5056767;28;20027;-83
2021/08/21 05:11:51;;;;;;;10.75;9.40;;;17.10;85.00;;;;;;5056292;28;20051;-83
2021/08/21 05:14:16;;;;;;;11.68;8.90;;;17.10;85.00;;;;;;5056564;28;20048;-83
2021/08/21 05:16:45;;;;;;;10.05;8.70;;;17.10;85.00;;;;;;5074083;28;20433;-83
2021/08/21 05:19:24;;;;;;;9.25;8.25;;;17.10;85.10;;;;;;5056388;28;20013;-83
2021/08/21 05:21:51;;;;;;;10.40;8.82;;;17.10;85.00;;;;;;5074032;28;20066;-83
2021/08/21 05:24:18;;;;;;;9.35;8.35;;;17.10;85.00;;;;;;5050193;28;20128;-81
2021/08/21 05:26:47;;;;;;;10.25;8.45;;;17.10;85.00;;;;;;5067002;28;20025;-83
2021/08/21 05:29:17;;;;;;;11.50;8.98;;;17.20;85.00;;;;;;5033438;28;20029;-82
2021/08/21 05:31:44;;;;;;;10.55;9.27;;;17.10;85.00;;;;;;5033517;28;20033;-82
2021/08/21 05:34:13;;;;;;;11.10;9.32;;;17.20;85.00;;;;;;5033325;28;20029;-82
2021/08/21 05:36:39;;;;;;;11.23;8.90;;;17.20;85.00;;;;;;5066369;28;20128;-83
2021/08/21 05:39:08;;;;;;;9.52;8.48;;;17.20;85.00;;;;;;5066001;28;20104;-83
2021/08/21 05:41:34;;;;;;;12.70;9.43;;;17.30;85.00;;;;;;5066407;28;20021;-83
2021/08/21 05:44:00;;;;;;;11.27;9.95;;;17.30;85.00;;;;;;5066578;28;20033;-83
2021/08/21 05:46:25;;;;;;;11.07;9.70;;;17.30;85.00;;;;;;5065954;28;20110;-83
2021/08/21 05:48:51;;;;;;;13.23;10.68;;;17.40;85.00;;;;;;5066078;28;20025;-83
2021/08/21 05:51:16;;;;;;;11.60;10.15;;;17.40;84.90;;;;;;5048840;28;20018;-83
2021/08/21 05:53:42;;;;;;;11.38;9.88;;;17.40;85.00;;;;;;5033175;28;20025;-82
2021/08/21 05:56:08;;;;;;;9.93;8.88;;;17.50;85.00;;;;;;5065347;28;20032;-82
2021/08/21 05:58:33;;;;;;;11.93;10.05;;;17.50;85.00;;;;;;5065915;28;20024;-81
2021/08/21 06:00:59;;;;;;;10.43;9.32;;;17.50;85.00;;;;;;5033926;28;20474;-82
2021/08/21 06:03:24;;;;;;;10.95;9.43;;;17.60;85.00;;;;;;5032225;28;20017;-82
2021/08/21 06:05:50;;;;;;;10.63;9.52;;;17.60;85.00;;;;;;5065805;28;20017;-82
2021/08/21 06:08:16;;;;;;;12.05;10.25;;;17.70;85.00;;;;;;5065888;28;20021;-82
2021/08/21 06:10:42;;;;;;;11.57;9.95;;;17.70;85.00;;;;;;5032561;28;20014;-83
2021/08/21 06:13:08;;;;;;;11.15;9.93;;;17.80;85.00;;;;;;5065303;28;20127;-83
2021/08/21 06:15:35;;;;;;;11.48;10.27;;;17.90;84.90;;;;;;5065092;28;20393;-81
2021/08/21 06:18:00;;;;;;;12.65;10.52;;;18.00;84.90;;;;;;5032206;28;20389;-81
2021/08/21 06:20:26;;;;;;;13.32;11.70;;;18.00;84.80;;;;;;5048525;28;20040;-83
2021/08/21 06:22:52;;;;;;;12.65;11.20;;;18.00;84.80;;;;;;5048820;28;20021;-83
2021/08/21 06:25:17;;;;;;;12.90;10.60;;;18.00;84.80;;;;;;5071483;28;20519;-83
2021/08/21 06:27:43;;;;;;;13.95;9.80;;;18.10;84.80;;;;;;5074031;28;20060;-82
2021/08/21 06:30:10;;;;;;;12.02;10.07;;;18.10;84.80;;;;;;5072839;28;20039;-82
2021/08/21 06:32:36;;;;;;;12.18;8.98;;;18.20;84.70;;;;;;5055164;28;20103;-82
2021/08/21 06:35:03;;;;;;;12.50;10.20;;;18.20;84.60;;;;;;5055206;28;20564;-82
2021/08/21 06:37:28;;;;;;;11.48;8.95;;;18.30;84.60;;;;;;5073555;28;20036;-83
2021/08/21 06:39:54;;;;;;;12.23;9.98;;;18.30;84.50;;;;;;5073697;28;20480;-82
2021/08/21 06:42:20;;;;;;;10.90;8.82;;;18.40;84.60;;;;;;5073140;28;20417;-82
2021/08/21 06:44:45;;;;;;;11.65;9.45;;;18.40;84.60;;;;;;5055489;28;20078;-82
2021/08/21 06:47:11;;;;;;;10.88;9.07;;;18.40;84.50;;;;;;5055063;28;20023;-83
2021/08/21 06:49:36;;;;;;;10.45;8.52;;;18.40;84.40;;;;;;5055089;28;20055;-83
2021/08/21 06:52:02;;;;;;;12.27;8.60;;;18.50;84.40;;;;;;5055510;28;20036;-83
2021/08/21 06:54:28;;;;;;;9.65;8.30;;;18.50;84.30;;;;;;5055369;28;20503;-82
2021/08/21 06:56:54;;;;;;;9.98;8.98;;;18.60;84.30;;;;;;5055754;28;20025;-82
2021/08/21 06:59:20;;;;;;;9.20;8.02;;;18.60;84.20;;;;;;5054729;28;20040;-82
2021/08/21 07:01:46;;;;;;;10.35;8.80;;;18.60;84.20;;;;;;5055074;28;20017;-82
2021/08/21 07:04:12;;;;;;;9.32;8.32;;;18.70;84.20;;;;;;5054453;28;20601;-82
2021/08/21 07:06:37;;;;;;;9.50;8.13;;;18.70;84.00;;;;;;5054541;28;20028;-83
2021/08/21 07:09:03;;;;;;;10.30;8.32;;;18.70;84.00;;;;;;5072853;28;20021;-82
2021/08/21 07:11:29;;;;;;;10.85;9.38;;;18.70;84.10;;;;;;5072768;28;20016;-82
2021/08/21 07:13:54;;;;;;;10.18;8.40;;;18.70;84.10;;;;;;5054925;28;20434;-83
2021/08/21 07:16:20;;;;;;;10.82;8.88;;;18.70;84.00;;;;;;5054264;28;20425;-82
2021/08/21 07:18:46;;;;;;;10.15;8.30;;;18.80;84.00;;;;;;5075582;28;20036;-82
2021/08/21 07:21:12;;;;;;;10.57;8.93;;;18.80;83.90;;;;;;5057923;28;20024;-82
2021/08/21 07:23:38;;;;;;;9.23;7.80;;;18.90;83.90;;;;;;5076082;28;20087;-82
2021/08/21 07:26:04;;;;;;;10.20;8.35;;;18.90;83.90;;;;;;5058052;28;20017;-82
2021/08/21 07:28:30;;;;;;;10.85;9.50;;;19.00;83.70;;;;;;5057771;28;20020;-81
2021/08/21 07:30:57;;;;;;;9.23;7.30;;;19.10;83.60;;;;;;5058042;28;20021;-81
2021/08/21 07:33:23;;;;;;;10.23;8.55;;;19.10;83.50;;;;;;5058054;28;20023;-82
2021/08/21 07:36:38;;;;;;;12.05;8.00;;;19.10;83.50;;;;;;5058641;28;20020;-82
2021/08/21 07:39:07;;;;;;;8.73;7.45;;;19.10;83.40;;;;;;5057895;28;20441;-82
2021/08/21 07:41:36;;;;;;;9.38;7.82;;;19.10;83.40;;;;;;5057890;28;20024;-82
2021/08/21 07:44:02;;;;;;;10.30;9.07;;;19.20;83.40;;;;;;5057636;28;20036;-82
2021/08/21 07:46:29;;;;;;;9.70;8.23;;;19.20;83.40;;;;;;5058120;28;20107;-82
2021/08/21 07:48:55;;;;;;;11.02;9.05;;;19.20;83.30;;;;;;5075170;28;20170;-82
2021/08/21 07:51:20;;;;;;;10.85;8.75;;;19.20;83.30;;;;;;5057322;28;20107;-82
2021/08/21 07:53:46;;;;;;;9.88;8.18;;;19.30;83.20;;;;;;5075568;28;20124;-82
2021/08/21 07:56:15;;;;;;;9.90;7.45;;;19.30;83.10;;;;;;5057258;28;20023;-81
2021/08/21 07:58:40;;;;;;;10.15;8.30;;;19.40;83.10;;;;;;5057282;28;20035;-82
2021/08/21 08:01:06;;;;;;;9.15;7.38;;;19.40;82.90;;;;;;5056998;28;20024;-82
2021/08/21 08:03:32;;;;;;;7.68;6.88;;;19.60;82.80;;;;;;5057356;28;20546;-82
2021/08/21 08:05:57;;;;;;;8.75;7.53;;;19.70;82.60;;;;;;5075054;28;20025;-82
2021/08/21 08:08:23;;;;;;;10.63;7.32;;;19.90;82.30;;;;;;5075320;28;20021;-81
2021/08/21 08:10:50;;;;;;;7.53;6.53;;;20.10;82.00;;;;;;5057291;28;20501;-82
2021/08/21 08:13:16;;;;;;;9.02;6.80;;;20.20;81.70;;;;;;5056845;28;20451;-75
2021/08/21 08:15:42;;;;;;;8.15;6.28;;;20.40;81.40;;;;;;5056603;28;20021;-74
2021/08/21 08:18:08;;;;;;;7.75;6.75;;;20.50;81.00;;;;;;5056471;28;20431;-74
2021/08/21 08:20:34;;;;;;;7.38;6.22;;;20.60;80.80;;;;;;5074418;28;20071;-74
2021/08/21 08:23:00;;;;;;;7.70;6.70;;;20.70;80.60;;;;;;5056580;28;20033;-75
2021/08/21 08:25:25;;;;;;;8.55;6.47;;;20.80;80.40;;;;;;5056590;28;20127;-74
2021/08/21 08:27:51;;;;;;;8.00;6.72;;;20.90;80.30;;;;;;5074247;28;20021;-75
2021/08/21 08:30:17;;;;;;;6.97;5.97;;;21.00;80.10;;;;;;5056297;28;20502;-75
2021/08/21 08:32:43;;;;;;;7.10;6.40;;;21.10;79.80;;;;;;5056466;28;20021;-75
2021/08/21 08:35:10;;;;;;;9.52;7.97;;;21.20;79.60;;;;;;5074168;28;20073;-74
2021/08/21 08:37:36;;;;;;;8.88;6.93;;;21.30;79.30;;;;;;5055935;28;20029;-74
2021/08/21 08:40:04;;;;;;;8.95;6.47;;;21.30;79.10;;;;;;5055979;28;20392;-74
2021/08/21 08:42:31;;;;;;;7.25;5.95;;;21.40;78.90;;;;;;5073787;28;20123;-72
2021/08/21 08:44:57;;;;;;;7.82;6.18;;;21.50;78.80;;;;;;5089010;28;20373;-75
2021/08/21 08:47:22;;;;;;;7.22;6.00;;;21.60;78.60;;;;;;5074050;28;20021;-75
2021/08/21 08:49:49;;;;;;;10.48;6.80;;;21.70;78.30;;;;;;5073681;28;20025;-75
2021/08/21 08:52:17;;;;;;;7.00;6.30;;;21.70;78.00;;;;;;5073728;28;20098;-75
2021/08/21 08:54:43;;;;;;;8.45;6.28;;;21.70;77.90;;;;;;5073944;28;20070;-75
2021/08/21 08:57:15;;;;;;;8.35;6.63;;;21.70;77.70;;;;;;5055786;28;20357;-74
2021/08/21 08:59:41;;;;;;;9.30;6.60;;;21.80;77.50;;;;;;5055915;28;20032;-75
2021/08/21 09:02:06;;;;;;;6.40;5.80;;;21.80;77.30;;;;;;5055628;28;20089;-74
2021/08/21 09:04:32;;;;;;;7.25;6.25;;;21.80;77.20;;;;;;5073383;28;20097;-74
2021/08/21 09:06:58;;;;;;;8.57;6.80;;;21.90;77.00;;;;;;5073409;28;20032;-74
2021/08/21 09:09:25;;;;;;;8.15;6.72;;;22.00;76.90;;;;;;5073485;28;20024;-74
2021/08/21 09:11:53;;;;;;;7.55;6.00;;;22.10;76.70;;;;;;5055367;28;20106;-74
2021/08/21 09:14:22;;;;;;;7.05;6.15;;;22.10;76.50;;;;;;5089188;28;20028;-74
2021/08/21 09:16:51;;;;;;;8.00;6.25;;;22.10;76.50;;;;;;5055421;28;20031;-74
2021/08/21 09:19:25;;;;;;;10.00;8.20;;;22.10;76.40;;;;;;5073540;28;20119;-74
2021/08/21 09:22:06;;;;;;;7.28;6.57;;;22.10;76.30;;;;;;5055158;28;20111;-74
2021/08/21 09:24:37;;;;;;;8.18;7.20;;;22.10;76.30;;;;;;5055325;28;20419;-74
2021/08/21 09:27:21;;;;;;;7.28;6.15;;;22.10;76.30;;;;;;5055234;28;20383;-75
2021/08/21 09:30:07;;;;;;;6.70;5.75;;;22.20;76.20;;;;;;5055198;28;20436;-74
2021/08/21 09:32:32;;;;;;;6.35;5.72;;;22.30;76.10;;;;;;5055163;28;20028;-75
2021/08/21 09:35:07;;;;;;;6.45;5.55;;;22.30;76.00;;;;;;5073027;28;20055;-74
2021/08/21 09:37:53;;;;;;;6.10;5.50;;;22.30;75.80;;;;;;5088625;28;20063;-75
2021/08/21 09:40:31;;;;;;;6.40;5.55;;;22.30;75.70;;;;;;5072389;28;20094;-74
2021/08/21 09:42:58;;;;;;;6.22;5.63;;;22.40;75.60;;;;;;5072740;28;20024;-75
2021/08/21 09:45:24;;;;;;;6.65;5.70;;;22.50;75.50;;;;;;5072972;28;20028;-74
2021/08/21 09:47:58;;;;;;;7.90;5.55;;;22.50;75.40;;;;;;5072782;28;20024;-75
2021/08/21 09:50:24;;;;;;;7.65;6.30;;;22.50;75.20;;;;;;5054734;28;20056;-74
2021/08/21 09:52:49;;;;;;;6.72;6.03;;;22.50;75.20;;;;;;5072719;28;20047;-75
2021/08/21 09:55:20;;;;;;;6.13;5.20;;;22.60;75.20;;;;;;5055308;28;20024;-75
2021/08/21 09:58:14;;;;;;;7.32;4.53;;;22.60;75.10;;;;;;5054807;28;20373;-75
2021/08/21 10:00:41;;;;;;;7.05;4.85;;;22.70;75.00;;;;;;5072603;28;20550;-76
2021/08/21 10:03:07;;;;;;;5.55;5.05;;;22.70;75.00;;;;;;5054428;28;20469;-75
2021/08/21 10:05:33;;;;;;;6.43;5.05;;;22.70;74.90;;;;;;5054630;28;20051;-75
2021/08/21 10:10:38;;;;;;;5.05;4.05;;;22.80;74.50;;;;;;5072828;28;20115;-75
2021/08/21 10:13:09;;;;;;;3.40;2.83;;;22.90;74.10;;;;;;5072835;28;20028;-75
2021/08/21 10:15:41;;;;;;;4.43;3.10;;;23.00;73.80;;;;;;5054436;28;20063;-76
2021/08/21 10:18:08;;;;;;;4.55;3.83;;;23.10;73.40;;;;;;5072426;28;20032;-75
2021/08/21 10:20:36;;;;;;;4.13;3.22;;;23.10;73.30;;;;;;5072631;28;20058;-75
2021/08/21 10:23:11;;;;;;;4.65;3.15;;;23.10;73.10;;;;;;5072385;28;20031;-76
2021/08/21 10:25:41;;;;;;;4.35;3.45;;;23.10;72.80;;;;;;5054708;28;20032;-74
2021/08/21 10:28:11;;;;;;;3.88;3.38;;;23.10;72.50;;;;;;5054197;28;20451;-74
2021/08/21 10:30:45;;;;;;;3.83;2.90;;;23.20;72.40;;;;;;5072340;28;20024;-74
2021/08/21 10:33:11;;;;;;;4.57;3.00;;;23.20;72.20;;;;;;5054421;28;20050;-74
2021/08/21 10:35:47;;;;;;;5.38;3.08;;;23.20;71.90;;;;;;5072729;28;20025;-74
2021/08/21 10:38:35;;;;;;;4.53;2.75;;;23.20;71.50;;;;;;5072354;28;20098;-74
2021/08/21 10:41:09;;;;;;;3.10;2.55;;;23.30;71.30;;;;;;5054521;28;20063;-74
2021/08/21 10:43:53;;;;;;;4.90;3.40;;;23.30;71.20;;;;;;5053796;28;20116;-75
2021/08/21 10:46:31;;;;;;;4.47;3.38;;;23.40;70.80;;;;;;5072189;28;20024;-74
2021/08/21 10:49:03;;;;;;;3.50;3.13;;;23.50;70.80;;;;;;5054132;28;20040;-74
2021/08/21 10:51:46;;;;;;;3.92;3.30;;;23.60;70.70;;;;;;5054164;28;20021;-74
2021/08/21 10:54:26;;;;;;;5.20;3.28;;;23.60;70.40;;;;;;5058192;28;20036;-73
2021/08/21 10:56:54;;;;;;;4.85;3.40;;;23.60;70.20;;;;;;5058087;28;20043;-73
2021/08/21 10:59:39;;;;;;;3.67;3.03;;;23.70;70.30;;;;;;5075669;28;20029;-74
2021/08/21 11:02:28;;;;;;;4.00;3.10;;;23.80;70.00;;;;;;5075913;28;20037;-74
2021/08/21 11:04:53;;;;;;;4.13;3.13;;;23.90;69.90;;;;;;5057725;28;20043;-74
2021/08/21 11:07:37;;;;;;;3.55;2.97;;;24.00;69.80;;;;;;5075766;28;20028;-74
2021/08/21 11:10:14;;;;;;;3.38;2.70;;;24.00;69.50;;;;;;5057695;28;20523;-74
2021/08/21 11:12:42;;;;;;;3.65;3.00;;;24.10;69.20;;;;;;5075611;28;20388;-73
2021/08/21 11:15:21;;;;;;;5.78;3.42;;;24.10;69.00;;;;;;5057522;28;20025;-73
2021/08/21 11:17:46;;;;;;;3.72;2.97;;;24.20;68.90;;;;;;5057482;28;20035;-73
2021/08/21 11:20:34;;;;;;;4.38;2.60;;;24.30;68.80;;;;;;5057631;28;20028;-73
2021/08/21 11:23:20;;;;;;;3.58;2.60;;;24.40;68.60;;;;;;5090659;28;20035;-73
2021/08/21 11:25:46;;;;;;;3.38;2.60;;;24.50;68.20;;;;;;5056821;28;20044;-72
2021/08/21 11:28:23;;;;;;;4.50;2.90;;;24.50;68.00;;;;;;5075318;28;20078;-69
2021/08/21 11:31:11;;;;;;;3.33;2.80;;;24.50;68.10;;;;;;5057418;28;20441;-69
2021/08/21 11:33:39;;;;;;;2.60;2.38;;;24.60;67.30;;;;;;5075438;28;20032;-75
2021/08/21 11:36:05;;;;;;;2.80;2.50;;;24.60;67.20;;;;;;5057636;28;20025;-75
2021/08/21 11:38:33;;;;;;;4.20;2.28;;;24.70;67.20;;;;;;5057494;28;20029;-75
2021/08/21 11:41:00;;;;;;;4.25;3.40;;;24.80;66.90;;;;;;5075391;28;20024;-73
2021/08/21 11:43:28;;;;;;;4.43;3.20;;;24.90;65.90;;;;;;5057393;28;20029;-74
2021/08/21 11:45:55;;;;;;;2.90;2.33;;;25.00;65.70;;;;;;5056923;28;20090;-73
2021/08/21 11:48:30;;;;;;;3.83;2.50;;;25.10;65.50;;;;;;5057062;28;20024;-73
2021/08/21 11:50:57;;;;;;;3.00;2.53;;;25.20;65.10;;;;;;5075068;28;20040;-74
2021/08/21 11:53:24;;;;;;;3.25;2.90;;;25.30;65.00;;;;;;5057009;28;20392;-74
2021/08/21 11:55:55;;;;;;;2.80;2.22;;;25.40;64.90;;;;;;5057020;28;20147;-74
2021/08/21 11:58:46;;;;;;;3.25;2.47;;;25.40;64.80;;;;;;5090209;28;20456;-74
2021/08/21 12:01:14;;;;;;;3.03;2.63;;;25.50;64.80;;;;;;5070984;28;20040;-74
2021/08/21 12:04:28;;;;;;;2.75;2.38;;;25.50;64.90;;;;;;5056116;28;20491;-74
2021/08/21 12:06:29;;;;;;;3.53;2.70;;;25.60;64.60;;;;;;5067113;28;20078;-74
2021/08/21 12:09:15;;;;;;;3.42;2.63;;;25.60;64.40;;;;;;5074447;28;20062;-75
2021/08/21 12:11:43;;;;;;;3.25;2.33;;;25.60;64.30;;;;;;5056537;28;20070;-74
2021/08/21 12:14:10;;;;;;;2.92;2.38;;;25.60;64.30;;;;;;5056588;28;20036;-77
2021/08/21 12:16:38;;;;;;;3.15;2.78;;;25.60;64.20;;;;;;5057088;28;20456;-84
2021/08/21 12:19:04;;;;;;;3.25;2.95;;;25.60;64.10;;;;;;5056822;28;20032;-81
2021/08/21 12:21:30;;;;;;;2.58;2.35;;;25.60;63.90;;;;;;5057041;28;20059;-81
2021/08/21 12:23:57;;;;;;;4.35;2.90;;;25.60;63.70;;;;;;5074469;28;20069;-82
2021/08/21 12:26:38;;;;;;;4.53;3.30;;;25.60;63.60;;;;;;5056764;28;20377;-82
2021/08/21 12:29:06;;;;;;;3.30;2.80;;;25.60;63.50;;;;;;5074812;28;20025;-81
2021/08/21 12:31:37;;;;;;;3.67;2.80;;;25.60;63.60;;;;;;5056681;28;20024;-82
2021/08/21 12:34:03;;;;;;;3.22;2.67;;;25.60;63.50;;;;;;5056799;28;20411;-81
2021/08/21 12:40:09;;;;;;;4.82;2.75;;;25.60;63.30;;;;;;5075166;28;20032;-82
2021/08/21 12:42:34;;;;;;;3.90;2.70;;;25.50;63.40;;;;;;5056930;28;20036;-82
2021/08/21 12:45:17;;;;;;;2.85;2.55;;;25.50;63.40;;;;;;5056235;28;20032;-74
2021/08/21 12:47:42;;;;;;;3.85;2.38;;;25.40;63.40;;;;;;5074067;28;20032;-74
2021/08/21 12:50:12;;;;;;;2.42;2.22;;;25.40;63.50;;;;;;5056078;28;20396;-74
2021/08/21 12:52:38;;;;;;;2.53;2.30;;;25.40;63.40;;;;;;5074117;28;20073;-74